A- A+ FrançaisEnglishEspañol中国

最近的 LFBT Tarbes-Lourdes-PyrénéesLFPB Paris-Le-Bourget EGYP Mount PleasantSKYP El YopalTFFR Le RaizetEDTL Lahr

飞行员的航空天气,使用METAR(气象机场报告)进行的飞行准备和TAF(终端机场预报:针对以下情况的短期天气预报)航空)。 以及其他资源,例如VAC(目视进近图)和NOTAM(通知飞行员)以进行预试飞行.

METAR, TAF, VAC, NOTAM Sintra机场 (Portugal) / OACI LPST

它位于附近 Sintra (Portugal) 可提供5天天气预报 A do Fação 在 1.7 km, Algueirão-Mem Martins 在 3.1 km, Pero Pinheiro 在 3.3 km, Sintra (Santa Maria e São Miguel) 在 3.5 km, Pedregais 在 4 km, Sintra 在 4.7 km, Montelavar 在 4.8 km, Vale de Lobos 在 4.9 km,

机场的高度为 Sintra机场的

134 m = 440 ft

附近的机场 Sintra机场的

跑道 Sintra机场的

METAR Sintra机场的 - LPST

LPST 031600Z 29011KT 9999 SCT020 22/15 Q1012

Sintra机场METAR解码 (Portugal)

LPST机场发行的METAR日期2020年06月03日至16:00 GMT, 警告:此METAR已过期, 已于 2 天 1 小时 59 分钟.

可见度为大于 10 km = 大于6.2 sm.

温度为22°C = 72 °F 露点为15°C = 59 °F 。 这相当于65%的相对湿度。.

QNH是1012 hPa = 29.88 inHg

的风11 kt = 20 km/h, 风向为290°.

云:距离2000 ft = 610 m.

TAF Sintra机场的 - LPST

LPST 031402Z 0315/0324 30010KT 9999 SCT020 BECMG 0320/0322 BKN012

Sintra机场TAF解码 (Portugal)

LPST机场发行的TAF日期2020年06月03日至14:02 GMT 警告:此TAF已过期, 已于 2 天 3 小时 57 分钟.

du mercredi 3 juin 2020 à 15:00 heure TU au mercredi 3 juin 2020 à 20:00 heure TU

的风10 kt = 19 km/h, 风向为300°.

可见度为大于 10 km = 大于6.2 sm.

距离 2000 ft=610云.

变得 du jeudi 4 juin 2020 à 22:00 heure TU au mercredi 3 juin 2020 à 00:00 heure TU

距云 1200 ft=370云.

Sintra机场的NOTAM

提供的NOTAM不能保证其时事性。 在将其用于飞行准备或在飞行期间使用之前,飞行员是唯一负责验证其有效性的人员。

没有通知

数据源